Time;durP1;ratioP1;P1;durP2;ratioP2;P2;SDS_P1;SDS_P2;PMS_P1;PMS_P2;Temp;Humidity;BMP_temperature;BMP_pressure;BME280_temperature;BME280_humidity;BME280_pressure;Samples;Min_cycle;Max_cycle;Signal;HPM_P1;HPM_P2
2022/01/23 00:01:06;;;;;;;4.40;4.00;;;;;;;;;;5052591;28;20499;-82
2022/01/23 00:03:33;;;;;;;4.33;3.93;;;;;;;;;;5053361;28;20786;-82
2022/01/23 00:06:00;;;;;;;5.00;4.07;;;;;;;;;;5053001;28;20458;-83
2022/01/23 00:08:28;;;;;;;5.20;4.43;;;;;;;;;;5052770;28;20458;-82
2022/01/23 00:10:56;;;;;;;4.80;4.27;;;;;;;;;;5053962;28;20448;-82
2022/01/23 00:13:32;;;;;;;5.53;4.67;;;;;;;;;;5052889;28;20447;-82
2022/01/23 00:18:47;;;;;;;6.53;5.50;;;;;;;;;;5053529;28;20409;-82
2022/01/23 00:21:14;;;;;;;5.80;4.90;;;;;;;;;;5052949;28;20467;-82
2022/01/23 00:31:56;;;;;;;5.40;4.33;;;;;;;;;;5052862;28;20404;-83
2022/01/23 00:34:32;;;;;;;7.73;5.47;;;;;;;;;;5052440;28;20448;-82
2022/01/23 00:37:08;;;;;;;5.03;4.50;;;;;;;;;;5052354;28;20475;-82
2022/01/23 00:39:51;;;;;;;10.77;5.50;;;;;;;;;;5052524;28;20190;-82
2022/01/23 00:42:20;;;;;;;7.10;5.60;;;;;;;;;;5052372;28;20459;-82
2022/01/23 00:45:11;;;;;;;6.80;5.40;;;;;;;;;;5052027;28;20447;-82
2022/01/23 00:47:41;;;;;;;6.37;5.30;;;;;;;;;;5052180;28;20447;-82
2022/01/23 00:50:09;;;;;;;4.80;4.30;;;;;;;;;;5052065;28;20433;-82
2022/01/23 00:52:42;;;;;;;6.73;4.87;;;;;;;;;;5052244;28;20439;-82
2022/01/23 00:55:10;;;;;;;5.53;4.30;;;;;;;;;;5052059;28;20527;-82
2022/01/23 00:57:39;;;;;;;4.47;4.07;;;;;;;;;;5051737;28;20484;-82
2022/01/23 01:00:10;;;;;;;8.23;4.70;;;;;;;;;;5051614;28;20472;-83
2022/01/23 01:02:37;;;;;;;4.67;4.20;;;;;;;;;;5052041;28;20448;-82
2022/01/23 01:05:08;;;;;;;6.10;4.87;;;;;;;;;;5051915;28;20472;-82
2022/01/23 01:07:39;;;;;;;6.23;4.70;;;;;;;;;;5051221;28;20837;-82
2022/01/23 01:10:15;;;;;;;6.80;4.83;;;;;;;;;;5051911;28;20446;-82
2022/01/23 01:12:52;;;;;;;5.80;4.87;;;;;;;;;;5051885;28;20927;-82
2022/01/23 01:15:40;;;;;;;5.60;4.40;;;;;;;;;;5051813;28;20930;-82
2022/01/23 01:32:13;;;;;;;5.03;4.27;;;;;;;;;;5051887;28;20853;-82
2022/01/23 01:34:45;;;;;;;4.60;4.20;;;;;;;;;;5051962;28;20437;-82
2022/01/23 01:37:13;;;;;;;6.77;3.97;;;;;;;;;;5051605;28;20562;-82
2022/01/23 01:39:40;;;;;;;6.03;4.40;;;;;;;;;;5051287;28;20440;-82
2022/01/23 01:42:08;;;;;;;4.43;3.53;;;;;;;;;;5051871;28;20814;-82
2022/01/23 01:44:43;;;;;;;7.07;4.60;;;;;;;;;;5051521;28;20450;-82
2022/01/23 01:47:10;;;;;;;4.93;4.07;;;;;;;;;;5051579;28;20442;-82
2022/01/23 01:49:43;;;;;;;4.80;4.07;;;;;;;;;;5051470;28;20444;-82
2022/01/23 01:52:11;;;;;;;4.83;3.87;;;;;;;;;;5051554;28;20456;-82
2022/01/23 01:54:44;;;;;;;5.27;4.23;;;;;;;;;;5051481;28;20480;-82
2022/01/23 01:57:13;;;;;;;4.43;4.03;;;;;;;;;;5051333;28;20484;-82
2022/01/23 02:00:12;;;;;;;4.80;4.40;;;;;;;;;;5051154;28;20504;-82
2022/01/23 02:03:17;;;;;;;4.67;3.63;;;;;;;;;;5051344;28;20456;-82
2022/01/23 02:08:27;;;;;;;4.57;3.50;;;;;;;;;;5051694;28;20785;-82
2022/01/23 02:10:58;;;;;;;4.60;3.90;;;;;;;;;;5051662;28;20523;-81
2022/01/23 02:13:30;;;;;;;7.50;5.00;;;;;;;;;;5051332;28;20436;-82
2022/01/23 02:52:28;;;;;;;5.67;4.00;;;;;;;;;;5054634;28;20847;-82
2022/01/23 02:55:12;;;;;;;4.27;3.60;;;;;;;;;;5054240;28;20436;-82
2022/01/23 02:57:53;;;;;;;4.87;3.93;;;;;;;;;;5054368;28;20464;-82
2022/01/23 03:00:23;;;;;;;9.50;4.40;;;;;;;;;;5052711;28;20483;-82
2022/01/23 03:03:01;;;;;;;10.43;5.30;;;;;;;;;;5054336;28;20486;-82
2022/01/23 03:05:38;;;;;;;4.23;3.83;;;;;;;;;;5054194;28;20808;-82
2022/01/23 03:08:22;;;;;;;9.00;5.17;;;;;;;;;;5054334;28;20851;-82
2022/01/23 03:11:01;;;;;;;5.53;4.37;;;;;;;;;;5054316;28;20437;-82
2022/01/23 03:13:48;;;;;;;5.17;3.70;;;;;;;;;;5054182;28;20439;-82
2022/01/23 03:25:00;;;;;;;4.50;3.67;;;;;;;;;;5054316;28;20793;-81
2022/01/23 03:30:20;;;;;;;6.27;4.17;;;;;;;;;;5049858;28;20440;-82
2022/01/23 03:32:50;;;;;;;3.47;3.17;;;;;;;;;;5053859;28;20527;-82
2022/01/23 03:35:18;;;;;;;4.03;3.20;;;;;;;;;;5053891;28;20449;-82
2022/01/23 03:37:51;;;;;;;3.93;3.60;;;;;;;;;;5053779;28;20881;-81
2022/01/23 03:40:19;;;;;;;5.03;3.60;;;;;;;;;;5053530;28;20432;-81
2022/01/23 03:42:55;;;;;;;4.27;2.97;;;;;;;;;;5053507;28;20436;-82
2022/01/23 03:45:50;;;;;;;3.83;3.47;;;;;;;;;;5053473;28;20519;-82
2022/01/23 03:51:15;;;;;;;3.27;2.93;;;;;;;;;;5053726;28;20911;-82
2022/01/23 03:53:42;;;;;;;4.97;3.27;;;;;;;;;;5053080;28;20450;-81
2022/01/23 03:56:14;;;;;;;3.23;3.03;;;;;;;;;;5053240;28;20440;-81
2022/01/23 03:58:43;;;;;;;5.63;3.37;;;;;;;;;;5053094;28;20561;-82
2022/01/23 04:01:10;;;;;;;4.27;2.83;;;;;;;;;;5052097;28;20902;-82
2022/01/23 04:03:40;;;;;;;3.43;2.63;;;;;;;;;;5053396;28;20444;-82
2022/01/23 04:06:08;;;;;;;2.90;2.63;;;;;;;;;;5053310;28;20945;-82
2022/01/23 04:08:35;;;;;;;3.07;2.37;;;;;;;;;;5053193;28;20444;-82
2022/01/23 04:11:02;;;;;;;3.67;2.67;;;;;;;;;;5052880;28;20459;-82
2022/01/23 04:13:40;;;;;;;3.00;2.80;;;;;;;;;;5052850;28;20445;-81
2022/01/23 04:16:27;;;;;;;5.33;3.40;;;;;;;;;;5052746;28;20972;-82
2022/01/23 04:19:15;;;;;;;4.40;2.93;;;;;;;;;;5052850;28;20500;-82
2022/01/23 04:33:23;;;;;;;3.93;3.50;;;;;;;;;;5052641;28;20990;-81
2022/01/23 04:48:08;;;;;;;9.33;7.53;;;;;;;;;;5052342;28;20416;-81
2022/01/23 05:01:31;;;;;;;3.60;2.47;;;;;;;;;;5052002;28;20539;-82
2022/01/23 05:04:11;;;;;;;3.33;2.80;;;;;;;;;;5052410;28;20832;-82
2022/01/23 05:06:43;;;;;;;5.60;3.73;;;;;;;;;;5051927;28;20539;-81
2022/01/23 05:09:11;;;;;;;7.70;4.43;;;;;;;;;;5051939;28;20440;-81
2022/01/23 05:11:42;;;;;;;6.57;4.23;;;;;;;;;;5051996;28;20804;-81
2022/01/23 05:14:10;;;;;;;4.87;3.87;;;;;;;;;;5051957;28;20929;-82
2022/01/23 05:16:37;;;;;;;3.87;3.53;;;;;;;;;;5052015;28;20441;-82
2022/01/23 05:19:05;;;;;;;31.27;18.87;;;;;;;;;;5051885;28;20490;-82
2022/01/23 05:22:02;;;;;;;24.17;14.30;;;;;;;;;;5052084;28;20444;-82
2022/01/23 05:24:36;;;;;;;35.27;18.03;;;;;;;;;;5050565;28;20502;-81
2022/01/23 05:27:08;;;;;;;59.13;35.13;;;;;;;;;;5051771;28;20491;-82
2022/01/23 05:29:36;;;;;;;21.97;14.13;;;;;;;;;;5051729;28;20454;-81
2022/01/23 05:32:04;;;;;;;28.47;19.13;;;;;;;;;;5051691;28;20454;-82
2022/01/23 05:34:38;;;;;;;14.53;10.33;;;;;;;;;;5051787;28;20467;-81
2022/01/23 05:37:08;;;;;;;7.67;5.43;;;;;;;;;;5051599;28;20440;-81
2022/01/23 05:39:37;;;;;;;12.87;9.67;;;;;;;;;;5051514;28;20440;-82
2022/01/23 05:42:07;;;;;;;11.27;8.60;;;;;;;;;;5051599;28;20452;-81
2022/01/23 05:44:35;;;;;;;11.87;9.00;;;;;;;;;;5051627;28;20949;-81
2022/01/23 05:47:03;;;;;;;5.70;4.07;;;;;;;;;;5051709;28;20455;-81
2022/01/23 05:49:30;;;;;;;5.77;3.77;;;;;;;;;;5051642;28;20436;-81
2022/01/23 05:51:57;;;;;;;7.40;5.43;;;;;;;;;;5051507;28;20444;-81
2022/01/23 05:54:24;;;;;;;4.43;3.27;;;;;;;;;;5053477;28;20444;-81
2022/01/23 05:56:53;;;;;;;67.30;38.97;;;;;;;;;;5055564;28;20447;-81
2022/01/23 05:59:21;;;;;;;54.53;32.03;;;;;;;;;;5055092;28;20479;-81
2022/01/23 06:01:55;;;;;;;76.37;42.70;;;;;;;;;;5055856;28;20431;-81
2022/01/23 06:04:24;;;;;;;25.63;18.17;;;;;;;;;;5055208;28;20444;-81
2022/01/23 06:06:51;;;;;;;19.60;12.53;;;;;;;;;;5055320;28;20502;-82
2022/01/23 06:09:28;;;;;;;53.77;30.43;;;;;;;;;;5055226;28;20498;-81
2022/01/23 06:12:10;;;;;;;70.37;38.97;;;;;;;;;;5055010;28;20510;-81
2022/01/23 06:14:38;;;;;;;38.47;19.27;;;;;;;;;;5055530;28;20448;-81
2022/01/23 06:17:05;;;;;;;29.03;15.17;;;;;;;;;;5055270;28;20454;-82
2022/01/23 06:19:36;;;;;;;10.30;7.73;;;;;;;;;;5055017;28;20860;-81
2022/01/23 06:22:04;;;;;;;12.17;8.07;;;;;;;;;;5054990;28;20454;-81
2022/01/23 06:24:32;;;;;;;16.83;12.57;;;;;;;;;;5055249;28;20456;-82
2022/01/23 06:27:00;;;;;;;12.07;8.60;;;;;;;;;;5054845;28;20444;-81
2022/01/23 06:29:30;;;;;;;22.97;15.20;;;;;;;;;;5054806;28;20479;-81
2022/01/23 06:31:59;;;;;;;39.47;22.80;;;;;;;;;;5055307;28;20432;-81
2022/01/23 06:34:27;;;;;;;26.73;17.73;;;;;;;;;;5054938;28;20448;-81
2022/01/23 06:36:54;;;;;;;14.90;10.23;;;;;;;;;;5054901;28;20527;-82
2022/01/23 06:39:31;;;;;;;20.00;11.47;;;;;;;;;;5054676;28;20480;-81
2022/01/23 06:41:58;;;;;;;14.07;9.77;;;;;;;;;;5054679;28;20501;-81
2022/01/23 06:44:26;;;;;;;18.77;11.97;;;;;;;;;;5054550;28;20448;-81
2022/01/23 06:46:58;;;;;;;26.73;16.40;;;;;;;;;;5054991;28;20444;-81
2022/01/23 06:49:28;;;;;;;26.10;16.57;;;;;;;;;;5054525;28;20536;-81
2022/01/23 06:51:55;;;;;;;13.57;9.60;;;;;;;;;;5054462;28;20459;-81
2022/01/23 06:54:31;;;;;;;10.37;7.47;;;;;;;;;;5054478;28;20519;-82
2022/01/23 06:56:59;;;;;;;9.63;6.73;;;;;;;;;;5054144;28;21027;-81
2022/01/23 06:59:29;;;;;;;8.17;6.27;;;;;;;;;;5053952;28;20883;-81
2022/01/23 07:01:58;;;;;;;11.43;7.93;;;;;;;;;;5054653;28;20451;-82
2022/01/23 07:04:31;;;;;;;12.03;7.27;;;;;;;;;;5054431;28;20440;-81
2022/01/23 07:06:59;;;;;;;40.30;23.20;;;;;;;;;;5053406;28;20441;-81
2022/01/23 07:09:26;;;;;;;22.13;15.50;;;;;;;;;;5054191;28;20447;-82
2022/01/23 07:11:53;;;;;;;26.80;14.67;;;;;;;;;;5053905;28;20482;-82
2022/01/23 07:14:26;;;;;;;8.60;6.93;;;;;;;;;;5054040;28;20448;-82
2022/01/23 07:17:04;;;;;;;16.83;9.27;;;;;;;;;;5054405;28;20452;-82
2022/01/23 07:19:31;;;;;;;14.70;8.97;;;;;;;;;;5054229;28;20872;-82
2022/01/23 07:22:05;;;;;;;22.40;16.13;;;;;;;;;;5054028;28;20475;-82
2022/01/23 07:24:35;;;;;;;17.30;12.73;;;;;;;;;;5054147;28;20828;-82
2022/01/23 07:27:12;;;;;;;14.67;9.40;;;;;;;;;;5053845;28;20805;-82
2022/01/23 07:29:41;;;;;;;7.87;6.33;;;;;;;;;;5054022;28;20854;-82
2022/01/23 07:32:10;;;;;;;8.23;5.70;;;;;;;;;;5053670;28;20448;-82
2022/01/23 07:34:38;;;;;;;5.63;4.50;;;;;;;;;;5053606;28;20448;-82
2022/01/23 07:37:10;;;;;;;7.27;6.50;;;;;;;;;;5053558;28;20450;-82
2022/01/23 07:39:37;;;;;;;5.93;4.33;;;;;;;;;;5053753;28;20923;-82
2022/01/23 07:42:08;;;;;;;5.63;4.43;;;;;;;;;;5053462;28;20543;-82
2022/01/23 07:44:35;;;;;;;8.00;4.50;;;;;;;;;;5053451;28;20441;-82
2022/01/23 07:47:03;;;;;;;6.47;4.23;;;;;;;;;;5053175;28;21035;-82
2022/01/23 07:49:32;;;;;;;5.00;4.50;;;;;;;;;;5053766;28;20467;-82
2022/01/23 07:52:04;;;;;;;7.13;4.27;;;;;;;;;;5053194;28;20477;-83
2022/01/23 07:54:31;;;;;;;9.97;7.53;;;;;;;;;;5053251;28;20510;-82
2022/01/23 07:57:05;;;;;;;21.83;11.93;;;;;;;;;;5053153;28;20543;-82
2022/01/23 07:59:35;;;;;;;10.87;6.90;;;;;;;;;;5052964;28;20484;-82
2022/01/23 08:02:06;;;;;;;8.37;4.77;;;;;;;;;;5053501;28;20433;-82
2022/01/23 08:04:38;;;;;;;9.30;5.33;;;;;;;;;;5053044;28;20201;-82
2022/01/23 08:07:11;;;;;;;5.37;4.43;;;;;;;;;;5053358;28;20444;-82
2022/01/23 08:09:41;;;;;;;6.00;4.43;;;;;;;;;;5053124;28;20429;-82
2022/01/23 08:12:10;;;;;;;6.87;5.43;;;;;;;;;;5052930;28;20821;-82
2022/01/23 08:14:37;;;;;;;7.43;6.13;;;;;;;;;;5052919;28;20202;-83
2022/01/23 08:17:05;;;;;;;6.70;6.10;;;;;;;;;;5052439;28;20202;-82
2022/01/23 08:19:35;;;;;;;9.97;7.93;;;;;;;;;;5052693;28;20476;-82
2022/01/23 08:22:06;;;;;;;11.33;6.83;;;;;;;;;;5052644;28;20200;-82
2022/01/23 08:24:36;;;;;;;11.07;6.23;;;;;;;;;;5052666;28;20462;-82
2022/01/23 08:27:07;;;;;;;6.40;5.70;;;;;;;;;;5052689;28;20198;-83
2022/01/23 08:29:34;;;;;;;6.50;5.40;;;;;;;;;;5052559;28;20204;-82
2022/01/23 08:32:01;;;;;;;6.00;5.30;;;;;;;;;;5052418;28;20198;-82
2022/01/23 08:34:35;;;;;;;6.07;5.03;;;;;;;;;;5052382;28;20762;-83
2022/01/23 08:37:10;;;;;;;4.57;4.17;;;;;;;;;;5052197;28;20284;-83
2022/01/23 08:39:38;;;;;;;6.63;5.07;;;;;;;;;;5052198;28;20330;-83
2022/01/23 08:42:07;;;;;;;15.57;11.20;;;;;;;;;;5052546;28;20201;-83
2022/01/23 08:44:44;;;;;;;8.20;6.90;;;;;;;;;;5052224;28;20200;-83
2022/01/23 08:47:14;;;;;;;4.07;3.70;;;;;;;;;;5052247;28;20193;-83
2022/01/23 08:49:46;;;;;;;3.83;3.13;;;;;;;;;;5052354;28;20194;-83
2022/01/23 08:52:17;;;;;;;3.60;3.30;;;;;;;;;;5052204;28;20210;-83
2022/01/23 08:54:45;;;;;;;3.83;3.43;;;;;;;;;;5052252;28;20643;-82
2022/01/23 08:57:12;;;;;;;4.87;4.47;;;;;;;;;;5052013;28;20831;-83
2022/01/23 08:59:42;;;;;;;5.17;3.97;;;;;;;;;;5051790;28;20491;-83
2022/01/23 09:02:09;;;;;;;6.33;3.80;;;;;;;;;;5052727;28;20186;-83
2022/01/23 09:04:39;;;;;;;3.47;3.13;;;;;;;;;;5052090;28;20201;-83
2022/01/23 09:07:17;;;;;;;3.53;2.97;;;;;;;;;;5051912;28;20451;-83
2022/01/23 09:09:45;;;;;;;3.87;3.23;;;;;;;;;;5051793;28;20583;-83
2022/01/23 09:12:29;;;;;;;6.50;3.10;;;;;;;;;;5052357;28;20208;-83
2022/01/23 09:14:56;;;;;;;3.40;3.10;;;;;;;;;;5052146;28;20208;-83
2022/01/23 09:17:23;;;;;;;5.87;4.73;;;;;;;;;;5051884;28;20444;-83
2022/01/23 09:19:51;;;;;;;8.57;5.73;;;;;;;;;;5052000;28;20225;-83
2022/01/23 09:22:19;;;;;;;6.70;5.93;;;;;;;;;;5051737;28;20198;-83
2022/01/23 09:24:46;;;;;;;6.73;4.90;;;;;;;;;;5051805;28;20202;-83
2022/01/23 09:27:20;;;;;;;5.03;4.37;;;;;;;;;;5052599;28;20202;-83
2022/01/23 09:29:54;;;;;;;4.77;4.37;;;;;;;;;;5050929;28;20193;-83
2022/01/23 09:32:31;;;;;;;3.97;3.57;;;;;;;;;;5051711;28;20189;-83
2022/01/23 09:34:58;;;;;;;5.63;4.67;;;;;;;;;;5051927;28;20202;-83
2022/01/23 09:37:46;;;;;;;5.67;3.93;;;;;;;;;;5051881;28;20202;-83
2022/01/23 09:40:19;;;;;;;4.83;3.50;;;;;;;;;;5051540;28;20222;-84
2022/01/23 09:43:00;;;;;;;4.27;3.40;;;;;;;;;;5051639;28;20194;-83
2022/01/23 09:45:27;;;;;;;8.30;4.53;;;;;;;;;;5051969;28;20437;-83
2022/01/23 09:47:55;;;;;;;6.47;5.20;;;;;;;;;;5051868;28;20201;-84
2022/01/23 09:50:26;;;;;;;5.77;4.37;;;;;;;;;;5051557;28;20198;-83
2022/01/23 09:52:58;;;;;;;4.70;4.30;;;;;;;;;;5051549;28;20205;-84
2022/01/23 09:55:27;;;;;;;6.50;4.17;;;;;;;;;;5051458;28;20680;-84
2022/01/23 09:57:57;;;;;;;6.40;5.30;;;;;;;;;;5051574;28;20190;-84
2022/01/23 10:00:26;;;;;;;8.87;7.87;;;;;;;;;;5049455;28;20242;-84
2022/01/23 10:02:54;;;;;;;13.97;8.47;;;;;;;;;;5051462;28;20208;-84
2022/01/23 10:05:24;;;;;;;7.30;4.40;;;;;;;;;;5051488;28;20201;-85
2022/01/23 10:07:53;;;;;;;5.77;5.20;;;;;;;;;;5051503;28;20284;-84
2022/01/23 10:10:39;;;;;;;5.33;4.83;;;;;;;;;;5051851;28;20202;-85
2022/01/23 10:13:15;;;;;;;6.57;5.87;;;;;;;;;;5051522;28;20280;-86
2022/01/23 10:15:43;;;;;;;6.00;4.67;;;;;;;;;;5051554;28;20194;-86
2022/01/23 10:18:17;;;;;;;4.80;4.40;;;;;;;;;;5051629;28;20671;-87
2022/01/23 10:20:48;;;;;;;2.73;2.50;;;;;;;;;;5051498;28;20311;-86
2022/01/23 10:23:16;;;;;;;4.97;3.97;;;;;;;;;;5052133;28;20190;-86
2022/01/23 10:25:46;;;;;;;3.60;3.10;;;;;;;;;;5051631;28;20201;-86
2022/01/23 10:28:17;;;;;;;4.27;3.57;;;;;;;;;;5052022;28;20273;-87
2022/01/23 10:30:56;;;;;;;4.27;3.40;;;;;;;;;;5051558;28;20186;-86
2022/01/23 10:33:25;;;;;;;6.23;4.60;;;;;;;;;;5051701;28;20186;-87
2022/01/23 10:36:00;;;;;;;5.83;4.83;;;;;;;;;;5051634;28;20202;-87
2022/01/23 10:38:52;;;;;;;3.97;3.17;;;;;;;;;;5051787;28;20572;-87
2022/01/23 10:41:46;;;;;;;4.77;3.40;;;;;;;;;;5054958;28;20643;-87
2022/01/23 10:49:49;;;;;;;4.07;3.67;;;;;;;;;;5047754;28;20190;-88
2022/01/23 10:52:30;;;;;;;3.33;2.90;;;;;;;;;;5055849;28;20198;-88
2022/01/23 10:55:26;;;;;;;4.17;3.30;;;;;;;;;;5055995;28;20186;-89
2022/01/23 10:58:20;;;;;;;7.00;4.10;;;;;;;;;;5055386;28;20586;-89
2022/01/23 11:00:50;;;;;;;4.27;3.87;;;;;;;;;;5053605;28;20237;-90
2022/01/23 11:03:27;;;;;;;5.50;4.27;;;;;;;;;;5055050;28;20310;-88
2022/01/23 11:06:18;;;;;;;3.80;3.37;;;;;;;;;;5054815;28;20259;-89
2022/01/23 11:09:08;;;;;;;6.77;2.77;;;;;;;;;;5054732;28;20344;-90
2022/01/23 11:11:59;;;;;;;3.30;3.03;;;;;;;;;;5055465;28;20189;-89
2022/01/23 11:17:25;;;;;;;3.10;2.60;;;;;;;;;;5054912;28;20185;-90
2022/01/23 11:20:00;;;;;;;3.90;2.63;;;;;;;;;;5054945;28;20209;-89
2022/01/23 11:22:36;;;;;;;3.97;3.37;;;;;;;;;;5054739;28;20231;-89
2022/01/23 11:25:07;;;;;;;3.97;3.30;;;;;;;;;;5054961;28;20208;-90
2022/01/23 11:27:37;;;;;;;6.33;3.57;;;;;;;;;;5054945;28;20269;-89
2022/01/23 11:30:11;;;;;;;3.90;3.53;;;;;;;;;;5054610;28;20190;-90
2022/01/23 11:32:40;;;;;;;4.43;3.80;;;;;;;;;;5054914;28;20182;-90
2022/01/23 11:35:12;;;;;;;4.37;3.70;;;;;;;;;;5054835;28;20571;-89
2022/01/23 11:37:46;;;;;;;5.17;3.80;;;;;;;;;;5054966;28;20186;-90
2022/01/23 11:54:39;;;;;;;6.50;5.17;;;;;;;;;;5054440;28;20292;-90
2022/01/23 11:57:49;;;;;;;4.33;3.90;;;;;;;;;;5054486;28;20284;-90
2022/01/23 12:00:21;;;;;;;9.03;4.70;;;;;;;;;;5049013;28;20710;-90
2022/01/23 12:03:11;;;;;;;3.30;3.00;;;;;;;;;;5054030;28;20202;-90
2022/01/23 12:05:41;;;;;;;3.53;3.23;;;;;;;;;;5054120;28;20280;-91
2022/01/23 12:08:38;;;;;;;4.50;2.67;;;;;;;;;;5054770;28;20198;-89
2022/01/23 12:11:24;;;;;;;6.33;5.43;;;;;;;;;;5053776;28;20263;-90
2022/01/23 12:17:37;;;;;;;10.67;7.33;;;;;;;;;;5053574;28;20208;-89
2022/01/23 12:20:07;;;;;;;10.07;6.67;;;;;;;;;;5053912;28;20625;-90
2022/01/23 12:22:37;;;;;;;5.70;4.27;;;;;;;;;;5053720;28;20293;-90
2022/01/23 12:25:22;;;;;;;3.70;3.33;;;;;;;;;;5054760;28;20239;-89
2022/01/23 12:28:25;;;;;;;4.23;3.83;;;;;;;;;;5053900;28;20190;-90
2022/01/23 12:30:54;;;;;;;5.40;3.50;;;;;;;;;;5054056;28;20639;-90
2022/01/23 12:33:56;;;;;;;5.17;4.67;;;;;;;;;;5053881;28;20202;-91
2022/01/23 12:36:31;;;;;;;7.63;6.47;;;;;;;;;;5018695;28;20246;-90
2022/01/23 12:39:18;;;;;;;5.40;4.50;;;;;;;;;;5053194;28;20203;-90
2022/01/23 12:41:54;;;;;;;6.73;4.70;;;;;;;;;;5053780;28;20627;-90
2022/01/23 12:44:36;;;;;;;6.43;5.07;;;;;;;;;;5053142;28;20192;-89
2022/01/23 12:47:06;;;;;;;4.50;3.60;;;;;;;;;;5053288;28;20514;-90
2022/01/23 12:49:49;;;;;;;5.63;4.87;;;;;;;;;;5054174;28;20201;-89
2022/01/23 12:52:22;;;;;;;4.97;4.10;;;;;;;;;;5053854;28;20190;-90
2022/01/23 12:54:59;;;;;;;5.33;4.50;;;;;;;;;;5053564;28;20202;-89
2022/01/23 12:57:37;;;;;;;7.20;6.13;;;;;;;;;;5053934;28;20677;-90
2022/01/23 13:00:09;;;;;;;5.87;4.33;;;;;;;;;;5053034;28;20233;-90
2022/01/23 13:02:43;;;;;;;5.63;4.00;;;;;;;;;;5052822;28;20202;-90
2022/01/23 13:05:17;;;;;;;3.97;3.60;;;;;;;;;;5052598;28;20251;-91
2022/01/23 13:08:08;;;;;;;4.57;3.90;;;;;;;;;;5053095;28;20217;-90
2022/01/23 13:10:56;;;;;;;3.77;3.47;;;;;;;;;;5052753;28;20295;-90
2022/01/23 13:13:36;;;;;;;7.67;5.80;;;;;;;;;;5052918;28;20208;-90
2022/01/23 13:16:27;;;;;;;6.03;3.97;;;;;;;;;;5053226;28;20283;-91
2022/01/23 13:19:45;;;;;;;4.17;3.50;;;;;;;;;;5052920;28;20202;-91
2022/01/23 13:31:12;;;;;;;4.50;3.57;;;;;;;;;;5053157;28;20400;-89
2022/01/23 13:33:42;;;;;;;5.47;3.20;;;;;;;;;;5053328;28;20197;-90
2022/01/23 13:36:16;;;;;;;5.23;4.73;;;;;;;;;;5052614;28;20190;-90
2022/01/23 13:38:46;;;;;;;4.53;4.13;;;;;;;;;;5052967;28;20277;-89
2022/01/23 13:41:24;;;;;;;4.83;3.77;;;;;;;;;;5052822;28;20626;-89
2022/01/23 13:52:42;;;;;;;4.43;4.03;;;;;;;;;;5049415;28;20439;-90
2022/01/23 14:00:42;;;;;;;4.37;3.97;;;;;;;;;;5052497;28;20471;-88
2022/01/23 14:03:16;;;;;;;5.67;4.53;;;;;;;;;;5053445;28;20201;-89
2022/01/23 14:05:46;;;;;;;4.63;3.37;;;;;;;;;;5053585;28;20202;-89
2022/01/23 14:08:16;;;;;;;6.70;5.17;;;;;;;;;;5053930;28;20198;-89
2022/01/23 14:10:46;;;;;;;6.57;5.17;;;;;;;;;;5052667;28;20194;-88
2022/01/23 14:13:19;;;;;;;4.20;3.80;;;;;;;;;;5052645;28;20560;-89
2022/01/23 14:15:48;;;;;;;5.13;4.63;;;;;;;;;;5055663;28;20523;-88
2022/01/23 14:18:22;;;;;;;9.53;5.27;;;;;;;;;;5056572;28;20443;-89
2022/01/23 14:20:58;;;;;;;5.83;5.00;;;;;;;;;;5056037;28;20304;-88
2022/01/23 14:23:26;;;;;;;4.47;4.07;;;;;;;;;;5056099;28;20991;-88
2022/01/23 14:25:58;;;;;;;4.80;4.37;;;;;;;;;;5056304;28;20236;-88
2022/01/23 14:28:29;;;;;;;7.33;5.10;;;;;;;;;;5056083;28;20693;-88
2022/01/23 14:30:59;;;;;;;5.57;4.50;;;;;;;;;;5056480;28;20189;-88
2022/01/23 14:33:30;;;;;;;4.73;3.93;;;;;;;;;;5056064;28;20189;-88
2022/01/23 14:35:57;;;;;;;6.93;4.20;;;;;;;;;;5056122;28;20455;-88
2022/01/23 14:38:29;;;;;;;5.50;4.73;;;;;;;;;;5055483;28;20204;-88
2022/01/23 14:40:59;;;;;;;5.30;4.80;;;;;;;;;;5055221;28;20308;-88
2022/01/23 14:43:36;;;;;;;8.03;5.33;;;;;;;;;;5055227;28;20273;-86
2022/01/23 14:46:04;;;;;;;8.87;6.63;;;;;;;;;;5055274;28;20203;-88
2022/01/23 14:48:36;;;;;;;6.93;5.73;;;;;;;;;;5055494;28;20233;-87
2022/01/23 14:51:23;;;;;;;6.53;4.80;;;;;;;;;;5055025;28;20197;-87
2022/01/23 14:53:57;;;;;;;5.33;4.83;;;;;;;;;;5054831;28;20194;-87
2022/01/23 14:56:25;;;;;;;6.87;5.30;;;;;;;;;;5055070;28;20687;-87
2022/01/23 14:58:55;;;;;;;6.13;4.50;;;;;;;;;;5054775;28;20248;-86
2022/01/23 15:01:23;;;;;;;7.67;5.70;;;;;;;;;;5054520;28;20230;-86
2022/01/23 15:04:04;;;;;;;13.63;8.23;;;;;;;;;;5054681;28;20208;-86
2022/01/23 15:06:38;;;;;;;10.80;7.33;;;;;;;;;;5054391;28;20252;-86
2022/01/23 15:09:18;;;;;;;7.70;5.57;;;;;;;;;;5054283;28;20201;-85
2022/01/23 15:11:46;;;;;;;8.20;6.20;;;;;;;;;;5054529;28;20367;-84
2022/01/23 15:14:28;;;;;;;7.27;5.67;;;;;;;;;;5053914;28;20440;-85
2022/01/23 15:17:01;;;;;;;10.57;7.60;;;;;;;;;;5053774;28;20432;-84
2022/01/23 15:19:31;;;;;;;11.13;7.37;;;;;;;;;;5053902;28;20451;-84
2022/01/23 15:22:14;;;;;;;9.53;7.77;;;;;;;;;;5053816;28;20222;-83
2022/01/23 15:24:53;;;;;;;15.77;8.73;;;;;;;;;;5053805;28;20197;-84
2022/01/23 15:27:49;;;;;;;10.77;7.03;;;;;;;;;;5052659;28;20443;-84
2022/01/23 15:30:18;;;;;;;11.37;7.20;;;;;;;;;;5053760;28;20452;-84
2022/01/23 15:32:46;;;;;;;9.90;6.80;;;;;;;;;;5053719;28;20440;-83
2022/01/23 15:35:15;;;;;;;8.87;6.37;;;;;;;;;;5053602;28;20190;-83
2022/01/23 15:37:42;;;;;;;10.03;8.60;;;;;;;;;;5053637;28;20268;-83
2022/01/23 15:40:14;;;;;;;14.53;10.33;;;;;;;;;;5054060;28;20443;-83
2022/01/23 15:42:42;;;;;;;7.97;5.50;;;;;;;;;;5053694;28;20447;-83
2022/01/23 15:45:10;;;;;;;7.47;6.67;;;;;;;;;;5053777;28;20467;-83
2022/01/23 15:47:39;;;;;;;7.57;6.23;;;;;;;;;;5053481;28;20662;-83
2022/01/23 15:50:14;;;;;;;7.63;5.93;;;;;;;;;;5053380;28;20444;-83
2022/01/23 15:52:41;;;;;;;9.73;7.97;;;;;;;;;;5053370;28;20202;-83
2022/01/23 15:55:10;;;;;;;9.27;7.13;;;;;;;;;;5053300;28;20531;-83
2022/01/23 15:57:38;;;;;;;6.33;5.60;;;;;;;;;;5053167;28;20974;-83
2022/01/23 16:00:07;;;;;;;8.80;7.33;;;;;;;;;;5052896;28;20476;-83
2022/01/23 16:02:34;;;;;;;10.53;7.43;;;;;;;;;;5053106;28;20198;-83
2022/01/23 16:05:10;;;;;;;10.30;7.23;;;;;;;;;;5053384;28;20447;-83
2022/01/23 16:07:37;;;;;;;11.80;6.77;;;;;;;;;;5053108;28;20287;-83
2022/01/23 16:10:05;;;;;;;9.03;6.47;;;;;;;;;;5053590;28;20431;-83
2022/01/23 16:12:32;;;;;;;9.67;7.97;;;;;;;;;;5052951;28;20198;-83
2022/01/23 16:14:59;;;;;;;14.03;9.00;;;;;;;;;;5053289;28;20444;-83
2022/01/23 16:17:27;;;;;;;11.03;8.63;;;;;;;;;;5053081;28;20532;-83
2022/01/23 16:20:02;;;;;;;12.17;8.77;;;;;;;;;;5052845;28;20452;-83
2022/01/23 16:22:33;;;;;;;11.10;9.03;;;;;;;;;;5052972;28;20275;-83
2022/01/23 16:25:04;;;;;;;9.93;6.83;;;;;;;;;;5053058;28;20466;-82
2022/01/23 16:27:31;;;;;;;9.97;7.10;;;;;;;;;;5053036;28;20228;-82
2022/01/23 16:29:59;;;;;;;7.47;6.57;;;;;;;;;;5052394;28;20194;-83
2022/01/23 16:32:26;;;;;;;8.70;6.47;;;;;;;;;;5052636;28;20212;-82
2022/01/23 16:34:57;;;;;;;7.37;6.40;;;;;;;;;;5052507;28;20233;-83
2022/01/23 16:37:30;;;;;;;7.73;6.77;;;;;;;;;;5052268;28;20448;-82
2022/01/23 16:39:59;;;;;;;13.90;10.10;;;;;;;;;;5052727;28;20205;-82
2022/01/23 16:42:29;;;;;;;22.27;13.63;;;;;;;;;;5052609;28;20247;-82
2022/01/23 16:45:09;;;;;;;16.00;11.37;;;;;;;;;;5052407;28;20285;-82
2022/01/23 16:47:36;;;;;;;20.07;14.00;;;;;;;;;;5052488;28;20610;-82
2022/01/23 16:50:04;;;;;;;22.53;13.30;;;;;;;;;;5052595;28;20198;-82
2022/01/23 16:52:31;;;;;;;153.30;71.20;;;;;;;;;;5052250;28;20453;-82
2022/01/23 16:55:00;;;;;;;44.80;25.37;;;;;;;;;;5052199;28;20203;-83
2022/01/23 16:57:51;;;;;;;39.30;18.77;;;;;;;;;;5052203;28;20220;-81
2022/01/23 17:00:19;;;;;;;53.53;24.87;;;;;;;;;;5051930;28;20483;-81
2022/01/23 17:02:47;;;;;;;312.47;121.37;;;;;;;;;;5051903;28;20491;-81
2022/01/23 17:05:14;;;;;;;83.80;40.17;;;;;;;;;;5052107;28;20432;-81
2022/01/23 17:07:43;;;;;;;242.53;115.77;;;;;;;;;;5052002;28;20539;-81
2022/01/23 17:10:14;;;;;;;194.40;90.17;;;;;;;;;;5052264;28;20866;-81
2022/01/23 17:12:42;;;;;;;89.30;47.70;;;;;;;;;;5051908;28;20455;-80
2022/01/23 17:15:10;;;;;;;54.27;32.73;;;;;;;;;;5051932;28;20440;-81
2022/01/23 17:17:37;;;;;;;22.17;13.73;;;;;;;;;;5051963;28;20448;-81
2022/01/23 17:20:05;;;;;;;68.73;43.13;;;;;;;;;;5052321;28;20439;-81
2022/01/23 17:22:32;;;;;;;22.73;16.90;;;;;;;;;;5051865;28;20597;-82
2022/01/23 17:25:02;;;;;;;11.67;7.63;;;;;;;;;;5051750;28;20896;-82
2022/01/23 17:27:31;;;;;;;8.27;6.40;;;;;;;;;;5052055;28;20881;-82
2022/01/23 17:30:00;;;;;;;9.23;5.73;;;;;;;;;;5051656;28;20502;-82
2022/01/23 17:32:30;;;;;;;5.40;4.87;;;;;;;;;;5051656;28;20971;-82
2022/01/23 17:35:04;;;;;;;6.53;5.93;;;;;;;;;;5051649;28;20446;-82
2022/01/23 17:37:31;;;;;;;5.20;4.20;;;;;;;;;;5051730;28;20447;-82
2022/01/23 17:39:58;;;;;;;6.13;4.70;;;;;;;;;;5051707;28;20521;-82
2022/01/23 17:42:28;;;;;;;11.93;8.90;;;;;;;;;;5051408;28;20513;-82
2022/01/23 17:44:57;;;;;;;12.03;8.97;;;;;;;;;;5051835;28;20448;-83
2022/01/23 17:47:45;;;;;;;7.70;6.27;;;;;;;;;;5051637;28;20444;-82
2022/01/23 17:50:19;;;;;;;8.23;6.57;;;;;;;;;;5053283;28;20445;-82
2022/01/23 17:52:48;;;;;;;5.43;4.63;;;;;;;;;;5055665;28;20934;-82
2022/01/23 17:55:15;;;;;;;4.80;4.40;;;;;;;;;;5055919;28;20454;-82